sensor_id;sensor_type;location;lat;lon;timestamp;pressure;altitude;pressure_sealevel;temperature;humidity
3812;BME280;1921;49.368;11.068;2023-12-20T00:01:37;97546.16;;;6.86;92.64
3812;BME280;1921;49.368;11.068;2023-12-20T00:04:03;97588.41;;;7.12;93.20
3812;BME280;1921;49.368;11.068;2023-12-20T00:06:30;97555.59;;;6.95;92.60
3812;BME280;1921;49.368;11.068;2023-12-20T00:08:56;97585.00;;;7.12;93.25
3812;BME280;1921;49.368;11.068;2023-12-20T00:11:24;97605.94;;;7.26;93.43
3812;BME280;1921;49.368;11.068;2023-12-20T00:13:50;97537.25;;;6.88;93.06
3812;BME280;1921;49.368;11.068;2023-12-20T00:16:16;97569.91;;;7.07;93.47
3812;BME280;1921;49.368;11.068;2023-12-20T00:18:42;97586.00;;;7.19;93.62
3812;BME280;1921;49.368;11.068;2023-12-20T00:21:08;97576.94;;;7.23;93.92
3812;BME280;1921;49.368;11.068;2023-12-20T00:23:33;97570.75;;;7.16;93.91
3812;BME280;1921;49.368;11.068;2023-12-20T00:25:59;97581.00;;;7.25;94.04
3812;BME280;1921;49.368;11.068;2023-12-20T00:28:25;97548.34;;;7.07;93.67
3812;BME280;1921;49.368;11.068;2023-12-20T00:30:50;97589.63;;;7.34;94.02
3812;BME280;1921;49.368;11.068;2023-12-20T00:33:16;97562.34;;;7.22;94.07
3812;BME280;1921;49.368;11.068;2023-12-20T00:35:42;97503.41;;;6.90;93.97
3812;BME280;1921;49.368;11.068;2023-12-20T00:38:08;97533.59;;;7.07;93.87
3812;BME280;1921;49.368;11.068;2023-12-20T00:40:34;97553.41;;;7.16;94.88
3812;BME280;1921;49.368;11.068;2023-12-20T00:43:00;97499.03;;;6.90;94.31
3812;BME280;1921;49.368;11.068;2023-12-20T00:45:26;97488.16;;;6.87;94.81
3812;BME280;1921;49.368;11.068;2023-12-20T00:47:52;97516.69;;;6.95;95.40
3812;BME280;1921;49.368;11.068;2023-12-20T00:50:17;97531.63;;;7.01;95.73
3812;BME280;1921;49.368;11.068;2023-12-20T00:52:43;97527.25;;;7.01;96.23
3812;BME280;1921;49.368;11.068;2023-12-20T00:55:09;97564.44;;;7.18;96.88
3812;BME280;1921;49.368;11.068;2023-12-20T00:57:35;97512.31;;;6.87;97.17
3812;BME280;1921;49.368;11.068;2023-12-20T01:00:01;97510.03;;;6.84;97.31
3812;BME280;1921;49.368;11.068;2023-12-20T01:02:27;97529.66;;;6.95;97.84
3812;BME280;1921;49.368;11.068;2023-12-20T01:04:52;97555.00;;;7.09;97.95
3812;BME280;1921;49.368;11.068;2023-12-20T01:07:20;97534.72;;;7.05;98.06
3812;BME280;1921;49.368;11.068;2023-12-20T01:09:46;97493.63;;;6.75;97.88
3812;BME280;1921;49.368;11.068;2023-12-20T01:12:12;97544.47;;;7.03;98.16
3812;BME280;1921;49.368;11.068;2023-12-20T01:14:38;97545.56;;;7.00;97.89
3812;BME280;1921;49.368;11.068;2023-12-20T01:17:05;97553.34;;;7.00;97.87
3812;BME280;1921;49.368;11.068;2023-12-20T01:19:30;97511.41;;;6.70;98.77
3812;BME280;1921;49.368;11.068;2023-12-20T01:21:56;97491.44;;;6.55;98.25
3812;BME280;1921;49.368;11.068;2023-12-20T01:24:22;97535.44;;;6.81;98.74
3812;BME280;1921;49.368;11.068;2023-12-20T01:26:48;97514.63;;;6.64;98.73
3812;BME280;1921;49.368;11.068;2023-12-20T01:29:13;97500.19;;;6.54;99.04
3812;BME280;1921;49.368;11.068;2023-12-20T01:31:40;97496.59;;;6.46;99.89
3812;BME280;1921;49.368;11.068;2023-12-20T01:34:09;97521.94;;;6.69;99.61
3812;BME280;1921;49.368;11.068;2023-12-20T01:36:34;97500.34;;;6.52;99.68
3812;BME280;1921;49.368;11.068;2023-12-20T01:39:00;97498.56;;;6.53;100.00
3812;BME280;1921;49.368;11.068;2023-12-20T01:41:26;97517.56;;;6.69;100.00
3812;BME280;1921;49.368;11.068;2023-12-20T01:43:51;97488.34;;;6.51;100.00
3812;BME280;1921;49.368;11.068;2023-12-20T01:46:19;97483.03;;;6.61;100.00
3812;BME280;1921;49.368;11.068;2023-12-20T01:48:45;97450.78;;;6.55;100.00
3812;BME280;1921;49.368;11.068;2023-12-20T01:51:11;97501.44;;;6.84;100.00
3812;BME280;1921;49.368;11.068;2023-12-20T01:53:38;97506.38;;;7.03;100.00
3812;BME280;1921;49.368;11.068;2023-12-20T01:56:05;97484.84;;;6.68;100.00
3812;BME280;1921;49.368;11.068;2023-12-20T01:58:31;97451.03;;;6.36;100.00
3812;BME280;1921;49.368;11.068;2023-12-20T02:00:57;97497.19;;;6.74;100.00
3812;BME280;1921;49.368;11.068;2023-12-20T02:03:23;97504.38;;;6.89;100.00
3812;BME280;1921;49.368;11.068;2023-12-20T02:05:50;97464.44;;;6.65;100.00
3812;BME280;1921;49.368;11.068;2023-12-20T02:08:16;97473.50;;;6.61;100.00
3812;BME280;1921;49.368;11.068;2023-12-20T02:10:42;97509.84;;;6.78;100.00
3812;BME280;1921;49.368;11.068;2023-12-20T02:13:08;97465.63;;;6.45;100.00
3812;BME280;1921;49.368;11.068;2023-12-20T02:15:34;97505.59;;;6.77;100.00
3812;BME280;1921;49.368;11.068;2023-12-20T02:18:02;97497.97;;;6.67;100.00
3812;BME280;1921;49.368;11.068;2023-12-20T02:20:28;97471.16;;;6.50;100.00
3812;BME280;1921;49.368;11.068;2023-12-20T02:22:54;97497.06;;;6.84;100.00
3812;BME280;1921;49.368;11.068;2023-12-20T02:25:21;97453.06;;;6.58;100.00
3812;BME280;1921;49.368;11.068;2023-12-20T02:27:47;97511.00;;;6.83;100.00
3812;BME280;1921;49.368;11.068;2023-12-20T02:30:14;97460.53;;;6.27;100.00
3812;BME280;1921;49.368;11.068;2023-12-20T02:32:40;97461.00;;;5.97;100.00
3812;BME280;1921;49.368;11.068;2023-12-20T02:35:06;97511.69;;;6.33;100.00
3812;BME280;1921;49.368;11.068;2023-12-20T02:37:33;97473.22;;;6.12;100.00
3812;BME280;1921;49.368;11.068;2023-12-20T02:39:58;97451.34;;;6.07;100.00
3812;BME280;1921;49.368;11.068;2023-12-20T02:42:24;97440.16;;;5.80;100.00
3812;BME280;1921;49.368;11.068;2023-12-20T02:44:50;97446.94;;;5.81;100.00
3812;BME280;1921;49.368;11.068;2023-12-20T02:47:15;97495.00;;;6.02;100.00
3812;BME280;1921;49.368;11.068;2023-12-20T02:49:41;97523.25;;;5.95;100.00
3812;BME280;1921;49.368;11.068;2023-12-20T02:52:07;97466.59;;;5.66;100.00
3812;BME280;1921;49.368;11.068;2023-12-20T02:54:33;97476.47;;;5.71;100.00
3812;BME280;1921;49.368;11.068;2023-12-20T02:56:58;97486.00;;;5.70;100.00
3812;BME280;1921;49.368;11.068;2023-12-20T02:59:24;97473.59;;;5.74;100.00
3812;BME280;1921;49.368;11.068;2023-12-20T03:01:50;97482.41;;;5.89;100.00
3812;BME280;1921;49.368;11.068;2023-12-20T03:04:15;97497.94;;;6.07;100.00
3812;BME280;1921;49.368;11.068;2023-12-20T03:06:41;97471.66;;;5.76;100.00
3812;BME280;1921;49.368;11.068;2023-12-20T03:09:07;97488.97;;;5.93;100.00
3812;BME280;1921;49.368;11.068;2023-12-20T03:11:33;97458.88;;;5.56;100.00
3812;BME280;1921;49.368;11.068;2023-12-20T03:13:59;97459.31;;;5.70;100.00
3812;BME280;1921;49.368;11.068;2023-12-20T03:16:25;97440.56;;;5.50;100.00
3812;BME280;1921;49.368;11.068;2023-12-20T03:18:51;97433.63;;;5.50;100.00
3812;BME280;1921;49.368;11.068;2023-12-20T03:21:16;97452.84;;;5.65;100.00
3812;BME280;1921;49.368;11.068;2023-12-20T03:23:42;97506.47;;;5.99;100.00
3812;BME280;1921;49.368;11.068;2023-12-20T03:26:09;97480.00;;;5.70;100.00
3812;BME280;1921;49.368;11.068;2023-12-20T03:28:36;97413.25;;;5.11;100.00
3812;BME280;1921;49.368;11.068;2023-12-20T03:31:02;97504.69;;;5.64;100.00
3812;BME280;1921;49.368;11.068;2023-12-20T03:33:29;97480.34;;;5.49;100.00
3812;BME280;1921;49.368;11.068;2023-12-20T03:35:54;97489.72;;;5.67;100.00
3812;BME280;1921;49.368;11.068;2023-12-20T03:38:21;97482.53;;;5.61;100.00
3812;BME280;1921;49.368;11.068;2023-12-20T03:40:49;97471.38;;;5.43;100.00
3812;BME280;1921;49.368;11.068;2023-12-20T03:43:15;97499.03;;;5.43;100.00
3812;BME280;1921;49.368;11.068;2023-12-20T03:45:42;97503.16;;;5.53;100.00
3812;BME280;1921;49.368;11.068;2023-12-20T03:48:08;97469.59;;;5.26;100.00
3812;BME280;1921;49.368;11.068;2023-12-20T03:50:34;97472.63;;;5.21;100.00
3812;BME280;1921;49.368;11.068;2023-12-20T03:53:01;97506.78;;;5.43;100.00
3812;BME280;1921;49.368;11.068;2023-12-20T03:55:27;97505.44;;;5.56;100.00
3812;BME280;1921;49.368;11.068;2023-12-20T03:57:52;97469.56;;;5.35;100.00
3812;BME280;1921;49.368;11.068;2023-12-20T04:00:18;97505.00;;;5.61;100.00
3812;BME280;1921;49.368;11.068;2023-12-20T04:02:44;97472.25;;;5.34;100.00
3812;BME280;1921;49.368;11.068;2023-12-20T04:05:10;97456.03;;;5.24;100.00
3812;BME280;1921;49.368;11.068;2023-12-20T04:07:36;97464.16;;;5.29;100.00
3812;BME280;1921;49.368;11.068;2023-12-20T04:10:02;97509.16;;;5.54;100.00
3812;BME280;1921;49.368;11.068;2023-12-20T04:12:29;97517.34;;;5.49;100.00
3812;BME280;1921;49.368;11.068;2023-12-20T04:14:58;97484.69;;;5.30;100.00
3812;BME280;1921;49.368;11.068;2023-12-20T04:17:24;97486.03;;;5.34;100.00
3812;BME280;1921;49.368;11.068;2023-12-20T04:19:50;97501.06;;;5.39;100.00
3812;BME280;1921;49.368;11.068;2023-12-20T04:22:18;97510.63;;;5.56;100.00
3812;BME280;1921;49.368;11.068;2023-12-20T04:24:44;97493.53;;;5.28;100.00
3812;BME280;1921;49.368;11.068;2023-12-20T04:27:10;97496.81;;;5.30;100.00
3812;BME280;1921;49.368;11.068;2023-12-20T04:29:36;97499.44;;;5.20;100.00
3812;BME280;1921;49.368;11.068;2023-12-20T04:32:02;97493.03;;;5.24;100.00
3812;BME280;1921;49.368;11.068;2023-12-20T04:34:27;97481.56;;;5.27;100.00
3812;BME280;1921;49.368;11.068;2023-12-20T04:36:53;97508.25;;;5.45;100.00
3812;BME280;1921;49.368;11.068;2023-12-20T04:39:19;97475.16;;;5.31;100.00
3812;BME280;1921;49.368;11.068;2023-12-20T04:41:45;97509.53;;;5.41;100.00
3812;BME280;1921;49.368;11.068;2023-12-20T04:44:10;97513.41;;;5.45;100.00
3812;BME280;1921;49.368;11.068;2023-12-20T04:46:36;97480.16;;;5.32;100.00
3812;BME280;1921;49.368;11.068;2023-12-20T04:49:02;97455.66;;;5.19;100.00
3812;BME280;1921;49.368;11.068;2023-12-20T04:51:28;97476.94;;;5.30;100.00
3812;BME280;1921;49.368;11.068;2023-12-20T04:53:53;97501.53;;;5.52;100.00
3812;BME280;1921;49.368;11.068;2023-12-20T04:56:19;97458.25;;;5.36;100.00
3812;BME280;1921;49.368;11.068;2023-12-20T04:58:45;97515.13;;;5.54;100.00
3812;BME280;1921;49.368;11.068;2023-12-20T05:01:10;97484.47;;;5.24;100.00
3812;BME280;1921;49.368;11.068;2023-12-20T05:03:37;97532.44;;;5.54;100.00
3812;BME280;1921;49.368;11.068;2023-12-20T05:06:03;97464.28;;;5.09;100.00
3812;BME280;1921;49.368;11.068;2023-12-20T05:08:29;97486.84;;;5.35;100.00
3812;BME280;1921;49.368;11.068;2023-12-20T05:10:55;97490.59;;;5.23;100.00
3812;BME280;1921;49.368;11.068;2023-12-20T05:13:21;97507.75;;;5.42;100.00
3812;BME280;1921;49.368;11.068;2023-12-20T05:15:47;97543.06;;;5.68;100.00
3812;BME280;1921;49.368;11.068;2023-12-20T05:18:13;97531.03;;;5.59;100.00
3812;BME280;1921;49.368;11.068;2023-12-20T05:20:39;97498.69;;;5.28;100.00
3812;BME280;1921;49.368;11.068;2023-12-20T05:23:05;97532.06;;;5.03;100.00
3812;BME280;1921;49.368;11.068;2023-12-20T05:25:31;97566.19;;;5.34;100.00
3812;BME280;1921;49.368;11.068;2023-12-20T05:27:57;97429.41;;;4.50;100.00
3812;BME280;1921;49.368;11.068;2023-12-20T05:30:23;97530.53;;;5.10;100.00
3812;BME280;1921;49.368;11.068;2023-12-20T05:32:49;97570.00;;;5.30;100.00
3812;BME280;1921;49.368;11.068;2023-12-20T05:35:15;97552.25;;;5.18;100.00
3812;BME280;1921;49.368;11.068;2023-12-20T05:37:41;97517.31;;;4.86;100.00
3812;BME280;1921;49.368;11.068;2023-12-20T05:40:07;97518.38;;;4.93;100.00
3812;BME280;1921;49.368;11.068;2023-12-20T05:42:37;97519.81;;;5.05;100.00
3812;BME280;1921;49.368;11.068;2023-12-20T05:45:04;97566.19;;;5.34;100.00
3812;BME280;1921;49.368;11.068;2023-12-20T05:47:30;97535.50;;;5.22;100.00
3812;BME280;1921;49.368;11.068;2023-12-20T05:49:56;97552.25;;;5.18;100.00
3812;BME280;1921;49.368;11.068;2023-12-20T05:52:22;97547.66;;;5.11;100.00
3812;BME280;1921;49.368;11.068;2023-12-20T05:54:48;97585.09;;;5.35;100.00
3812;BME280;1921;49.368;11.068;2023-12-20T05:57:14;97557.22;;;5.29;100.00
3812;BME280;1921;49.368;11.068;2023-12-20T05:59:39;97581.47;;;5.46;100.00
3812;BME280;1921;49.368;11.068;2023-12-20T06:02:05;97601.06;;;5.48;100.00
3812;BME280;1921;49.368;11.068;2023-12-20T06:04:32;97517.72;;;4.91;100.00
3812;BME280;1921;49.368;11.068;2023-12-20T06:06:58;97583.31;;;5.35;100.00
3812;BME280;1921;49.368;11.068;2023-12-20T06:09:26;97563.63;;;5.25;100.00
3812;BME280;1921;49.368;11.068;2023-12-20T06:11:52;97562.22;;;5.12;100.00
3812;BME280;1921;49.368;11.068;2023-12-20T06:14:18;97572.28;;;5.16;100.00
3812;BME280;1921;49.368;11.068;2023-12-20T06:16:44;97584.72;;;5.30;100.00
3812;BME280;1921;49.368;11.068;2023-12-20T06:19:10;97589.34;;;5.26;100.00
3812;BME280;1921;49.368;11.068;2023-12-20T06:21:36;97504.34;;;4.68;100.00
3812;BME280;1921;49.368;11.068;2023-12-20T06:24:02;97601.69;;;5.32;100.00
3812;BME280;1921;49.368;11.068;2023-12-20T06:26:30;97615.19;;;5.54;100.00
3812;BME280;1921;49.368;11.068;2023-12-20T06:28:56;97591.31;;;5.42;100.00
3812;BME280;1921;49.368;11.068;2023-12-20T06:31:22;97588.09;;;5.30;100.00
3812;BME280;1921;49.368;11.068;2023-12-20T06:33:48;97590.03;;;5.28;100.00
3812;BME280;1921;49.368;11.068;2023-12-20T06:36:23;97568.19;;;5.13;100.00
3812;BME280;1921;49.368;11.068;2023-12-20T06:38:49;97586.03;;;5.06;100.00
3812;BME280;1921;49.368;11.068;2023-12-20T06:41:15;97596.47;;;5.14;100.00
3812;BME280;1921;49.368;11.068;2023-12-20T06:43:42;97593.69;;;5.26;100.00
3812;BME280;1921;49.368;11.068;2023-12-20T06:46:08;97600.94;;;5.22;100.00
3812;BME280;1921;49.368;11.068;2023-12-20T06:48:34;97573.41;;;5.03;100.00
3812;BME280;1921;49.368;11.068;2023-12-20T06:51:01;97616.41;;;5.32;100.00
3812;BME280;1921;49.368;11.068;2023-12-20T06:53:30;97603.63;;;5.30;100.00
3812;BME280;1921;49.368;11.068;2023-12-20T06:55:56;97601.25;;;5.37;100.00
3812;BME280;1921;49.368;11.068;2023-12-20T06:58:23;97603.19;;;5.35;100.00
3812;BME280;1921;49.368;11.068;2023-12-20T07:00:49;97642.09;;;5.61;100.00
3812;BME280;1921;49.368;11.068;2023-12-20T07:03:15;97611.47;;;5.38;100.00
3812;BME280;1921;49.368;11.068;2023-12-20T07:05:41;97635.94;;;5.44;100.00
3812;BME280;1921;49.368;11.068;2023-12-20T07:08:07;97610.03;;;5.26;100.00
3812;BME280;1921;49.368;11.068;2023-12-20T07:10:33;97656.19;;;5.49;100.00
3812;BME280;1921;49.368;11.068;2023-12-20T07:12:59;97603.00;;;5.19;100.00
3812;BME280;1921;49.368;11.068;2023-12-20T07:15:24;97688.03;;;5.77;100.00
3812;BME280;1921;49.368;11.068;2023-12-20T07:17:50;97624.13;;;5.42;100.00
3812;BME280;1921;49.368;11.068;2023-12-20T07:20:16;97586.38;;;5.21;100.00
3812;BME280;1921;49.368;11.068;2023-12-20T07:22:42;97616.69;;;5.29;100.00
3812;BME280;1921;49.368;11.068;2023-12-20T07:25:08;97677.44;;;5.70;100.00
3812;BME280;1921;49.368;11.068;2023-12-20T07:27:33;97680.72;;;5.72;100.00
3812;BME280;1921;49.368;11.068;2023-12-20T07:29:59;97702.97;;;5.83;100.00
3812;BME280;1921;49.368;11.068;2023-12-20T07:32:25;97528.22;;;4.80;100.00
3812;BME280;1921;49.368;11.068;2023-12-20T07:34:50;97687.09;;;5.78;100.00
3812;BME280;1921;49.368;11.068;2023-12-20T07:37:16;97639.72;;;5.50;100.00
3812;BME280;1921;49.368;11.068;2023-12-20T07:39:42;97623.31;;;5.41;100.00
3812;BME280;1921;49.368;11.068;2023-12-20T07:42:08;97638.03;;;5.58;100.00
3812;BME280;1921;49.368;11.068;2023-12-20T07:44:34;97657.44;;;5.72;100.00
3812;BME280;1921;49.368;11.068;2023-12-20T07:47:03;97681.03;;;5.87;100.00
3812;BME280;1921;49.368;11.068;2023-12-20T07:49:31;97674.50;;;5.83;100.00
3812;BME280;1921;49.368;11.068;2023-12-20T07:51:57;97663.66;;;5.79;100.00
3812;BME280;1921;49.368;11.068;2023-12-20T07:54:23;97724.88;;;6.16;100.00
3812;BME280;1921;49.368;11.068;2023-12-20T07:56:49;97630.78;;;5.62;100.00
3812;BME280;1921;49.368;11.068;2023-12-20T07:59:15;97667.72;;;5.82;100.00
3812;BME280;1921;49.368;11.068;2023-12-20T08:01:40;97703.94;;;5.91;100.00
3812;BME280;1921;49.368;11.068;2023-12-20T08:04:08;97708.59;;;6.06;100.00
3812;BME280;1921;49.368;11.068;2023-12-20T08:06:34;97715.91;;;5.92;100.00
3812;BME280;1921;49.368;11.068;2023-12-20T08:09:00;97700.63;;;5.89;100.00
3812;BME280;1921;49.368;11.068;2023-12-20T08:11:26;97708.53;;;5.98;100.00
3812;BME280;1921;49.368;11.068;2023-12-20T08:13:52;97701.41;;;6.00;100.00
3812;BME280;1921;49.368;11.068;2023-12-20T08:16:17;97609.69;;;5.39;100.00
3812;BME280;1921;49.368;11.068;2023-12-20T08:18:43;97726.34;;;6.18;100.00
3812;BME280;1921;49.368;11.068;2023-12-20T08:21:09;97697.81;;;6.10;100.00
3812;BME280;1921;49.368;11.068;2023-12-20T08:23:35;97686.69;;;6.00;100.00
3812;BME280;1921;49.368;11.068;2023-12-20T08:26:08;97656.25;;;5.66;100.00
3812;BME280;1921;49.368;11.068;2023-12-20T08:28:34;97727.31;;;6.17;100.00
3812;BME280;1921;49.368;11.068;2023-12-20T08:31:00;97685.41;;;5.86;100.00
3812;BME280;1921;49.368;11.068;2023-12-20T08:33:26;97714.66;;;6.14;100.00
3812;BME280;1921;49.368;11.068;2023-12-20T08:35:52;97667.38;;;5.94;100.00
3812;BME280;1921;49.368;11.068;2023-12-20T08:38:17;97728.44;;;6.33;100.00
3812;BME280;1921;49.368;11.068;2023-12-20T08:40:44;97725.25;;;6.57;100.00
3812;BME280;1921;49.368;11.068;2023-12-20T08:43:10;97670.63;;;6.50;100.00
3812;BME280;1921;49.368;11.068;2023-12-20T08:45:36;97662.25;;;6.56;100.00
3812;BME280;1921;49.368;11.068;2023-12-20T08:48:02;97665.06;;;6.89;100.00
3812;BME280;1921;49.368;11.068;2023-12-20T08:50:29;97674.91;;;7.03;100.00
3812;BME280;1921;49.368;11.068;2023-12-20T08:52:54;97664.41;;;7.13;100.00
3812;BME280;1921;49.368;11.068;2023-12-20T08:55:30;97671.50;;;7.03;100.00
3812;BME280;1921;49.368;11.068;2023-12-20T08:57:59;97728.28;;;7.40;100.00
3812;BME280;1921;49.368;11.068;2023-12-20T09:00:25;97688.69;;;7.38;99.81
3812;BME280;1921;49.368;11.068;2023-12-20T09:02:54;97581.28;;;6.80;95.76
3812;BME280;1921;49.368;11.068;2023-12-20T09:05:20;97491.16;;;6.06;95.29
3812;BME280;1921;49.368;11.068;2023-12-20T09:07:46;97724.31;;;7.62;94.57
3812;BME280;1921;49.368;11.068;2023-12-20T09:10:11;97708.88;;;7.26;95.12
3812;BME280;1921;49.368;11.068;2023-12-20T09:12:37;97643.53;;;6.88;95.42
3812;BME280;1921;49.368;11.068;2023-12-20T09:15:06;97494.66;;;5.97;95.06
3812;BME280;1921;49.368;11.068;2023-12-20T09:17:31;97664.75;;;6.84;96.72
3812;BME280;1921;49.368;11.068;2023-12-20T09:19:59;97696.53;;;6.94;95.70
3812;BME280;1921;49.368;11.068;2023-12-20T09:22:25;97590.91;;;6.18;94.63
3812;BME280;1921;49.368;11.068;2023-12-20T09:24:51;97698.13;;;6.87;93.96
3812;BME280;1921;49.368;11.068;2023-12-20T09:27:17;97679.16;;;6.60;93.50
3812;BME280;1921;49.368;11.068;2023-12-20T09:29:43;97737.91;;;7.21;93.93
3812;BME280;1921;49.368;11.068;2023-12-20T09:32:08;97739.44;;;8.08;90.57
3812;BME280;1921;49.368;11.068;2023-12-20T09:34:34;97731.59;;;8.67;82.93
3812;BME280;1921;49.368;11.068;2023-12-20T09:37:00;97729.56;;;9.34;82.23
3812;BME280;1921;49.368;11.068;2023-12-20T09:39:25;97685.69;;;9.70;73.98
3812;BME280;1921;49.368;11.068;2023-12-20T09:42:03;97691.53;;;10.04;70.08
3812;BME280;1921;49.368;11.068;2023-12-20T09:44:29;97719.81;;;10.15;69.11
3812;BME280;1921;49.368;11.068;2023-12-20T09:46:56;97699.78;;;9.84;68.74
3812;BME280;1921;49.368;11.068;2023-12-20T09:49:22;97742.47;;;10.45;68.32
3812;BME280;1921;49.368;11.068;2023-12-20T09:51:50;97667.34;;;10.26;66.49
3812;BME280;1921;49.368;11.068;2023-12-20T09:54:18;97633.88;;;10.38;65.04
3812;BME280;1921;49.368;11.068;2023-12-20T09:56:44;97741.22;;;11.69;64.34
3812;BME280;1921;49.368;11.068;2023-12-20T09:59:10;97686.38;;;11.40;61.58
3812;BME280;1921;49.368;11.068;2023-12-20T10:01:39;97742.03;;;11.84;62.25
3812;BME280;1921;49.368;11.068;2023-12-20T10:04:08;97684.47;;;11.48;60.21
3812;BME280;1921;49.368;11.068;2023-12-20T10:06:40;97642.75;;;11.70;59.21
3812;BME280;1921;49.368;11.068;2023-12-20T10:09:06;97655.38;;;11.51;58.38
3812;BME280;1921;49.368;11.068;2023-12-20T10:11:34;97695.56;;;11.50;59.37
3812;BME280;1921;49.368;11.068;2023-12-20T10:14:00;97687.38;;;10.86;58.80
3812;BME280;1921;49.368;11.068;2023-12-20T10:16:27;97679.38;;;9.96;60.85
3812;BME280;1921;49.368;11.068;2023-12-20T10:18:54;97673.31;;;9.33;63.75
3812;BME280;1921;49.368;11.068;2023-12-20T10:21:31;97730.63;;;9.01;66.57
3812;BME280;1921;49.368;11.068;2023-12-20T10:23:58;97698.94;;;8.65;68.36
3812;BME280;1921;49.368;11.068;2023-12-20T10:26:26;97667.84;;;8.22;69.18
3812;BME280;1921;49.368;11.068;2023-12-20T10:28:59;97695.00;;;8.44;69.46
3812;BME280;1921;49.368;11.068;2023-12-20T10:31:32;97704.06;;;8.32;70.11
3812;BME280;1921;49.368;11.068;2023-12-20T10:34:00;97703.25;;;8.15;68.98
3812;BME280;1921;49.368;11.068;2023-12-20T10:36:30;97702.72;;;7.95;70.70
3812;BME280;1921;49.368;11.068;2023-12-20T10:38:57;97680.63;;;7.91;72.73
3812;BME280;1921;49.368;11.068;2023-12-20T10:41:31;97712.47;;;8.09;72.64
3812;BME280;1921;49.368;11.068;2023-12-20T10:44:00;97701.44;;;8.07;72.13
3812;BME280;1921;49.368;11.068;2023-12-20T10:46:27;97663.72;;;7.79;73.27
3812;BME280;1921;49.368;11.068;2023-12-20T10:49:01;97663.06;;;7.77;73.82
3812;BME280;1921;49.368;11.068;2023-12-20T10:51:28;97690.38;;;7.89;75.04
3812;BME280;1921;49.368;11.068;2023-12-20T10:53:56;97692.78;;;7.91;73.91
3812;BME280;1921;49.368;11.068;2023-12-20T10:56:22;97704.91;;;7.82;73.55
3812;BME280;1921;49.368;11.068;2023-12-20T10:58:51;97667.38;;;7.60;75.49
3812;BME280;1921;49.368;11.068;2023-12-20T11:01:18;97657.53;;;7.72;73.86
3812;BME280;1921;49.368;11.068;2023-12-20T11:03:52;97639.94;;;7.57;74.54
3812;BME280;1921;49.368;11.068;2023-12-20T11:09:24;97689.31;;;7.74;73.92
3812;BME280;1921;49.368;11.068;2023-12-20T11:12:18;97683.31;;;7.73;75.16
3812;BME280;1921;49.368;11.068;2023-12-20T11:14:51;97645.28;;;7.48;75.31
3812;BME280;1921;49.368;11.068;2023-12-20T11:17:17;97695.03;;;7.77;75.67
3812;BME280;1921;49.368;11.068;2023-12-20T11:20:05;97685.22;;;7.63;75.53
3812;BME280;1921;49.368;11.068;2023-12-20T11:22:32;97620.13;;;7.40;77.12
3812;BME280;1921;49.368;11.068;2023-12-20T11:27:35;97675.72;;;7.88;77.97
3812;BME280;1921;49.368;11.068;2023-12-20T11:30:04;97690.31;;;7.81;78.79
3812;BME280;1921;49.368;11.068;2023-12-20T11:32:35;97615.41;;;7.36;79.32
3812;BME280;1921;49.368;11.068;2023-12-20T11:35:17;97639.75;;;7.43;78.84
3812;BME280;1921;49.368;11.068;2023-12-20T11:37:45;97618.44;;;7.23;81.39
3812;BME280;1921;49.368;11.068;2023-12-20T11:40:18;97589.81;;;6.98;82.56
3812;BME280;1921;49.368;11.068;2023-12-20T11:42:51;97599.47;;;6.88;80.95
3812;BME280;1921;49.368;11.068;2023-12-20T11:45:19;97578.78;;;6.70;81.07
3812;BME280;1921;49.368;11.068;2023-12-20T11:47:48;97676.38;;;7.06;82.58
3812;BME280;1921;49.368;11.068;2023-12-20T11:50:21;97614.41;;;6.68;83.82
3812;BME280;1921;49.368;11.068;2023-12-20T11:52:48;97619.75;;;6.67;81.48
3812;BME280;1921;49.368;11.068;2023-12-20T11:55:14;97669.41;;;7.06;85.67
3812;BME280;1921;49.368;11.068;2023-12-20T11:57:40;97608.38;;;6.86;84.67
3812;BME280;1921;49.368;11.068;2023-12-20T12:00:06;97627.06;;;6.97;81.42
3812;BME280;1921;49.368;11.068;2023-12-20T12:02:32;97595.31;;;6.69;81.75
3812;BME280;1921;49.368;11.068;2023-12-20T12:05:00;97636.41;;;7.16;84.15
3812;BME280;1921;49.368;11.068;2023-12-20T12:07:25;97593.75;;;7.11;81.40
3812;BME280;1921;49.368;11.068;2023-12-20T12:09:51;97611.59;;;6.88;82.46
3812;BME280;1921;49.368;11.068;2023-12-20T12:12:18;97539.66;;;6.47;80.38
3812;BME280;1921;49.368;11.068;2023-12-20T12:14:45;97561.00;;;6.75;81.25
3812;BME280;1921;49.368;11.068;2023-12-20T12:17:14;97644.44;;;7.05;79.90
3812;BME280;1921;49.368;11.068;2023-12-20T12:19:41;97594.38;;;7.05;80.30
3812;BME280;1921;49.368;11.068;2023-12-20T12:22:10;97574.94;;;7.09;77.77
3812;BME280;1921;49.368;11.068;2023-12-20T12:24:45;97580.72;;;7.37;77.58
3812;BME280;1921;49.368;11.068;2023-12-20T12:27:15;97609.03;;;7.64;75.52
3812;BME280;1921;49.368;11.068;2023-12-20T12:30:05;97623.44;;;7.67;75.76
3812;BME280;1921;49.368;11.068;2023-12-20T12:32:36;97616.41;;;7.43;77.32
3812;BME280;1921;49.368;11.068;2023-12-20T12:35:05;97626.75;;;7.35;78.35
3812;BME280;1921;49.368;11.068;2023-12-20T12:37:34;97630.13;;;7.27;81.24
3812;BME280;1921;49.368;11.068;2023-12-20T12:40:00;97599.66;;;6.95;82.99
3812;BME280;1921;49.368;11.068;2023-12-20T12:42:26;97577.63;;;6.91;83.97
3812;BME280;1921;49.368;11.068;2023-12-20T12:44:54;97643.31;;;7.42;80.96
3812;BME280;1921;49.368;11.068;2023-12-20T12:47:21;97629.66;;;7.32;81.41
3812;BME280;1921;49.368;11.068;2023-12-20T12:49:49;97608.34;;;7.12;80.18
3812;BME280;1921;49.368;11.068;2023-12-20T12:52:16;97607.53;;;7.19;78.59
3812;BME280;1921;49.368;11.068;2023-12-20T12:54:43;97656.00;;;7.53;77.68
3812;BME280;1921;49.368;11.068;2023-12-20T12:57:11;97607.50;;;7.03;80.14
3812;BME280;1921;49.368;11.068;2023-12-20T12:59:37;97564.66;;;6.91;79.22
3812;BME280;1921;49.368;11.068;2023-12-20T13:02:03;97619.00;;;7.43;78.15
3812;BME280;1921;49.368;11.068;2023-12-20T13:04:29;97594.63;;;7.27;76.54
3812;BME280;1921;49.368;11.068;2023-12-20T13:06:54;97624.91;;;7.69;75.87
3812;BME280;1921;49.368;11.068;2023-12-20T13:09:21;97607.72;;;7.68;75.07
3812;BME280;1921;49.368;11.068;2023-12-20T13:11:46;97587.91;;;7.59;76.17
3812;BME280;1921;49.368;11.068;2023-12-20T13:14:12;97607.59;;;7.86;76.19
3812;BME280;1921;49.368;11.068;2023-12-20T13:16:41;97591.97;;;7.62;75.17
3812;BME280;1921;49.368;11.068;2023-12-20T13:19:07;97623.97;;;7.87;77.32